createdAt,value
2018-01-08T00:00:46.261Z,1021.70
2018-01-08T00:01:46.248Z,1021.75
2018-01-08T00:02:46.239Z,1021.70
2018-01-08T00:03:46.227Z,1021.69
2018-01-08T00:04:46.216Z,1021.70
2018-01-08T00:05:46.204Z,1021.74
2018-01-08T00:06:46.199Z,1021.73
2018-01-08T00:07:46.188Z,1021.70
2018-01-08T00:08:46.178Z,1021.67
2018-01-08T00:09:46.166Z,1021.66
2018-01-08T00:10:46.154Z,1021.69
2018-01-08T00:11:46.144Z,1021.74
2018-01-08T00:12:46.134Z,1021.63
2018-01-08T00:13:46.122Z,1021.64
2018-01-08T00:14:46.108Z,1021.63
2018-01-08T00:15:46.098Z,1021.57
2018-01-08T00:16:46.086Z,1021.63
2018-01-08T00:17:46.073Z,1021.59
2018-01-08T00:18:46.064Z,1021.61
2018-01-08T00:19:46.053Z,1021.59
2018-01-08T00:20:46.041Z,1021.60
2018-01-08T00:21:46.029Z,1021.52
2018-01-08T00:22:46.023Z,1021.51
2018-01-08T00:23:46.015Z,1021.52
2018-01-08T00:24:46.002Z,1021.60
2018-01-08T00:25:45.990Z,1021.61
2018-01-08T00:26:45.980Z,1021.45
2018-01-08T00:27:45.968Z,1021.53
2018-01-08T00:28:45.957Z,1021.53
2018-01-08T00:29:45.946Z,1021.51
2018-01-08T00:30:45.930Z,1021.50
2018-01-08T00:31:45.920Z,1021.54
2018-01-08T00:32:45.909Z,1021.48
2018-01-08T00:33:45.898Z,1021.47
2018-01-08T00:34:45.887Z,1021.49
2018-01-08T00:35:45.877Z,1021.45
2018-01-08T00:36:45.865Z,1021.51
2018-01-08T00:37:45.853Z,1021.47
2018-01-08T00:38:45.847Z,1021.51
2018-01-08T00:39:45.837Z,1021.49
2018-01-08T00:40:45.826Z,1021.49
2018-01-08T00:41:45.814Z,1021.54
2018-01-08T00:42:45.803Z,1021.49
2018-01-08T00:43:45.792Z,1021.49
2018-01-08T00:44:45.784Z,1021.56
2018-01-08T00:45:45.770Z,1021.46
2018-01-08T00:46:45.757Z,1021.52
2018-01-08T00:47:45.745Z,1021.44
2018-01-08T00:48:45.735Z,1021.35
2018-01-08T00:49:45.722Z,1021.45
2018-01-08T00:50:45.712Z,1021.40
2018-01-08T00:51:45.700Z,1021.42
2018-01-08T00:52:45.689Z,1021.43
2018-01-08T00:53:45.677Z,1021.39
2018-01-08T00:54:45.676Z,1021.39
2018-01-08T00:55:45.661Z,1021.44
2018-01-08T00:56:45.650Z,1021.36
2018-01-08T00:57:45.638Z,1021.40
2018-01-08T00:58:45.632Z,1021.46
2018-01-08T00:59:45.616Z,1021.39
2018-01-08T01:00:45.606Z,1021.44
2018-01-08T01:01:45.594Z,1021.44
2018-01-08T01:02:45.578Z,1021.37
2018-01-08T01:03:45.568Z,1021.31
2018-01-08T01:04:45.558Z,1021.36
2018-01-08T01:05:45.545Z,1021.37
2018-01-08T01:06:45.535Z,1021.32
2018-01-08T01:07:45.527Z,1021.39
2018-01-08T01:08:45.513Z,1021.40
2018-01-08T01:09:45.504Z,1021.31
2018-01-08T01:10:45.495Z,1021.40
2018-01-08T01:11:45.484Z,1021.43
2018-01-08T01:12:45.473Z,1021.40
2018-01-08T01:13:45.461Z,1021.43
2018-01-08T01:14:45.451Z,1021.41
2018-01-08T01:15:45.440Z,1021.36
2018-01-08T01:16:45.429Z,1021.42
2018-01-08T01:17:45.419Z,1021.38
2018-01-08T01:18:45.402Z,1021.32
2018-01-08T01:19:45.392Z,1021.38
2018-01-08T01:20:45.380Z,1021.44
2018-01-08T01:21:45.372Z,1021.38
2018-01-08T01:22:45.359Z,1021.36
2018-01-08T01:23:45.347Z,1021.51
2018-01-08T01:24:45.337Z,1021.42
2018-01-08T01:25:45.325Z,1021.31
2018-01-08T01:26:45.321Z,1021.31
2018-01-08T01:27:45.307Z,1021.42
2018-01-08T01:28:45.297Z,1021.33
2018-01-08T01:29:45.285Z,1021.30
2018-01-08T01:30:45.275Z,1021.29
2018-01-08T01:31:45.264Z,1021.31
2018-01-08T01:32:45.252Z,1021.33
2018-01-08T01:33:45.241Z,1021.35
2018-01-08T01:34:45.228Z,1021.33
2018-01-08T01:35:45.216Z,1021.32
2018-01-08T01:36:45.205Z,1021.34
2018-01-08T01:37:45.193Z,1021.29
2018-01-08T01:38:45.187Z,1021.26
2018-01-08T01:39:45.177Z,1021.36
2018-01-08T01:40:45.166Z,1021.39
2018-01-08T01:41:45.155Z,1021.39
2018-01-08T01:42:45.138Z,1021.36
2018-01-08T01:43:45.128Z,1021.37
2018-01-08T01:44:45.122Z,1021.35
2018-01-08T01:45:45.106Z,1021.37
2018-01-08T01:46:45.095Z,1021.42
2018-01-08T01:47:45.084Z,1021.35
2018-01-08T01:48:45.073Z,1021.37
2018-01-08T01:49:45.061Z,1021.41
2018-01-08T01:50:45.054Z,1021.29
2018-01-08T01:51:45.044Z,1021.39
2018-01-08T01:52:45.033Z,1021.33
2018-01-08T01:53:45.023Z,1021.31
2018-01-08T01:54:45.011Z,1021.34
2018-01-08T01:55:45.001Z,1021.36
2018-01-08T01:56:44.989Z,1021.37
2018-01-08T01:57:44.978Z,1021.32
2018-01-08T01:58:44.963Z,1021.30
2018-01-08T01:59:44.954Z,1021.25
2018-01-08T02:00:44.942Z,1021.33
2018-01-08T02:01:44.929Z,1021.29
2018-01-08T02:02:44.918Z,1021.31
2018-01-08T02:03:44.906Z,1021.33
2018-01-08T02:04:44.896Z,1021.35
2018-01-08T02:05:44.884Z,1021.31
2018-01-08T02:06:44.879Z,1021.30
2018-01-08T02:07:44.867Z,1021.31
2018-01-08T02:08:44.855Z,1021.35
2018-01-08T02:09:44.844Z,1021.32
2018-01-08T02:10:44.834Z,1021.25
2018-01-08T02:11:44.822Z,1021.32
2018-01-08T02:12:44.812Z,1021.29
2018-01-08T02:13:44.799Z,1021.24
2018-01-08T02:14:44.784Z,1021.22
2018-01-08T02:15:44.774Z,1021.24
2018-01-08T02:16:44.762Z,1021.20
2018-01-08T02:17:44.750Z,1021.27
2018-01-08T02:18:44.741Z,1021.30
2018-01-08T02:19:44.731Z,1021.25
2018-01-08T02:20:44.718Z,1021.25
2018-01-08T02:21:44.707Z,1021.22
2018-01-08T02:22:44.700Z,1021.25
2018-01-08T02:23:44.690Z,1021.21
2018-01-08T02:24:44.678Z,1021.24
2018-01-08T02:25:44.666Z,1021.20
2018-01-08T02:26:44.656Z,1021.26
2018-01-08T02:27:44.645Z,1021.26
2018-01-08T02:28:44.633Z,1021.24
2018-01-08T02:29:44.622Z,1021.21
2018-01-08T02:30:44.607Z,1021.21
2018-01-08T02:31:44.596Z,1021.19
2018-01-08T02:32:44.587Z,1021.15
2018-01-08T02:33:44.575Z,1021.13
2018-01-08T02:34:44.563Z,1021.15
2018-01-08T02:35:44.553Z,1021.16
2018-01-08T02:36:44.541Z,1021.16
2018-01-08T02:37:44.530Z,1021.10
2018-01-08T02:38:44.525Z,1021.09
2018-01-08T02:39:44.517Z,1021.13
2018-01-08T02:40:44.501Z,1021.12
2018-01-08T02:41:44.494Z,1021.15
2018-01-08T02:42:44.476Z,1021.10
2018-01-08T02:43:44.475Z,1021.06
2018-01-08T02:44:44.454Z,1021.13
2018-01-08T02:45:44.443Z,1021.17
2018-01-08T02:46:44.435Z,1021.04
2018-01-08T02:47:44.425Z,1021.07
2018-01-08T02:48:44.414Z,1021.00
2018-01-08T02:49:44.401Z,1021.00
2018-01-08T02:50:44.391Z,1021.05
2018-01-08T02:51:44.380Z,1021.05
2018-01-08T02:52:44.370Z,1020.97
2018-01-08T02:53:44.358Z,1021.02
2018-01-08T02:54:44.343Z,1020.95
2018-01-08T02:55:44.332Z,1020.97
2018-01-08T02:56:44.321Z,1020.88
2018-01-08T02:57:44.311Z,1020.87
2018-01-08T02:58:44.300Z,1020.86
2018-01-08T02:59:44.289Z,1020.83
2018-01-08T03:00:44.278Z,1020.83
2018-01-08T03:01:44.266Z,1020.77
2018-01-08T03:02:44.260Z,1020.76
2018-01-08T03:03:44.249Z,1020.78
2018-01-08T03:04:44.237Z,1020.74
2018-01-08T03:05:44.227Z,1020.71
2018-01-08T03:06:44.215Z,1020.65
2018-01-08T03:07:44.204Z,1020.71
2018-01-08T03:08:44.193Z,1020.65
2018-01-08T03:09:44.185Z,1020.68
2018-01-08T03:10:44.170Z,1020.64
2018-01-08T03:11:44.160Z,1020.67
2018-01-08T03:12:44.144Z,1020.72
2018-01-08T03:13:44.133Z,1020.77
2018-01-08T03:14:44.122Z,1020.84
2018-01-08T03:15:44.111Z,1020.73
2018-01-08T03:16:44.100Z,1020.81
2018-01-08T03:17:44.091Z,1020.75
2018-01-08T03:18:44.081Z,1020.73
2018-01-08T03:19:44.071Z,1020.69
2018-01-08T03:20:44.060Z,1020.71
2018-01-08T03:21:44.048Z,1020.80
2018-01-08T03:22:44.037Z,1020.69
2018-01-08T03:23:44.026Z,1020.71
2018-01-08T03:24:44.016Z,1020.68
2018-01-08T03:25:44.004Z,1020.63
2018-01-08T03:26:43.990Z,1020.58
2018-01-08T03:27:43.978Z,1020.65
2018-01-08T03:28:43.967Z,1020.69
2018-01-08T03:29:43.954Z,1020.65
2018-01-08T03:30:43.945Z,1020.67
2018-01-08T03:31:43.932Z,1020.66
2018-01-08T03:32:43.945Z,1020.62
2018-01-08T03:33:43.911Z,1020.67
2018-01-08T03:34:43.908Z,1020.70
2018-01-08T03:35:43.892Z,1020.64
2018-01-08T03:36:43.882Z,1020.58
2018-01-08T03:37:43.870Z,1020.56
2018-01-08T03:38:43.858Z,1020.52
2018-01-08T03:39:43.848Z,1020.63
2018-01-08T03:40:43.837Z,1020.68
2018-01-08T03:41:43.825Z,1020.61
2018-01-08T03:42:43.809Z,1020.68
2018-01-08T03:43:43.798Z,1020.60
2018-01-08T03:44:43.787Z,1020.59
2018-01-08T03:45:43.776Z,1020.61
2018-01-08T03:46:43.768Z,1020.62
2018-01-08T03:47:43.757Z,1020.53
2018-01-08T03:48:43.747Z,1020.65
2018-01-08T03:49:43.735Z,1020.58
2018-01-08T03:50:43.719Z,1020.62
2018-01-08T03:51:43.708Z,1020.66
2018-01-08T03:52:43.697Z,1020.54
2018-01-08T03:53:43.685Z,1020.59
2018-01-08T03:54:43.675Z,1020.59
2018-01-08T03:55:43.663Z,1020.60
2018-01-08T03:56:43.660Z,1020.67
2018-01-08T03:57:43.641Z,1020.60
2018-01-08T03:58:43.633Z,1020.57
2018-01-08T03:59:43.622Z,1020.55
2018-01-08T04:00:43.611Z,1020.54
2018-01-08T04:01:43.599Z,1020.45
2018-01-08T04:02:43.588Z,1020.50
2018-01-08T04:03:43.577Z,1020.50
2018-01-08T04:04:43.566Z,1020.51
2018-01-08T04:05:43.554Z,1020.48
2018-01-08T04:06:43.538Z,1020.43
2018-01-08T04:07:43.528Z,1020.38
2018-01-08T04:08:43.516Z,1020.52
2018-01-08T04:09:43.504Z,1020.33
2018-01-08T04:10:43.493Z,1020.34
2018-01-08T04:11:43.483Z,1020.43
2018-01-08T04:12:43.471Z,1020.53
2018-01-08T04:13:43.459Z,1020.38
2018-01-08T04:14:43.451Z,1020.39
2018-01-08T04:15:43.442Z,1020.34
2018-01-08T04:16:43.429Z,1020.34
2018-01-08T04:17:43.418Z,1020.32
2018-01-08T04:18:43.405Z,1020.40
2018-01-08T04:19:43.395Z,1020.38
2018-01-08T04:20:43.383Z,1020.37
2018-01-08T04:21:43.371Z,1020.31
2018-01-08T04:22:43.357Z,1020.36
2018-01-08T04:23:43.345Z,1020.38
2018-01-08T04:24:43.334Z,1020.38
2018-01-08T04:25:43.322Z,1020.32
2018-01-08T04:26:43.310Z,1020.43
2018-01-08T04:27:43.298Z,1020.42
2018-01-08T04:28:43.288Z,1020.38
2018-01-08T04:29:43.279Z,1020.44
2018-01-08T04:30:43.268Z,1020.37
2018-01-08T04:31:43.257Z,1020.56
2018-01-08T04:32:43.245Z,1020.56
2018-01-08T04:33:43.234Z,1020.38
2018-01-08T04:34:43.222Z,1020.39
2018-01-08T04:35:43.211Z,1020.61
2018-01-08T04:36:43.199Z,1020.31
2018-01-08T04:37:43.188Z,1020.42
2018-01-08T04:38:43.173Z,1020.44
2018-01-08T04:39:43.161Z,1020.42
2018-01-08T04:40:43.149Z,1020.41
2018-01-08T04:41:43.137Z,1020.44
2018-01-08T04:42:43.126Z,1020.53
2018-01-08T04:43:43.115Z,1020.45
2018-01-08T04:44:43.103Z,1020.39
2018-01-08T04:45:43.091Z,1020.37
2018-01-08T04:46:43.084Z,1020.40
2018-01-08T04:47:43.074Z,1020.33
2018-01-08T04:48:43.063Z,1020.17
2018-01-08T04:49:43.049Z,1020.43
2018-01-08T04:50:43.041Z,1020.42
2018-01-08T04:51:43.024Z,1020.49
2018-01-08T04:52:43.011Z,1020.51
2018-01-08T04:53:42.999Z,1020.60
2018-01-08T04:54:42.992Z,1020.56
2018-01-08T04:55:42.980Z,1020.60
2018-01-08T04:56:42.969Z,1020.63
2018-01-08T04:57:42.957Z,1020.56
2018-01-08T04:58:42.947Z,1020.76
2018-01-08T04:59:42.936Z,1020.68
2018-01-08T05:00:42.931Z,1020.67
2018-01-08T05:01:42.912Z,1020.74
2018-01-08T05:02:42.896Z,1020.75
2018-01-08T05:03:42.885Z,1020.66
2018-01-08T05:04:42.873Z,1020.70
2018-01-08T05:05:42.863Z,1020.72
2018-01-08T05:06:42.854Z,1020.73
2018-01-08T05:07:42.839Z,1020.71
2018-01-08T05:08:42.832Z,1020.67
2018-01-08T05:09:42.816Z,1020.72
2018-01-08T05:10:42.809Z,1020.66
2018-01-08T05:11:42.799Z,1020.58
2018-01-08T05:12:42.792Z,1020.66
2018-01-08T05:13:42.776Z,1020.62
2018-01-08T05:14:42.764Z,1020.62
2018-01-08T05:15:42.752Z,1020.55
2018-01-08T05:16:42.742Z,1020.63
2018-01-08T05:17:42.729Z,1020.59
2018-01-08T05:18:42.714Z,1020.60
2018-01-08T05:19:42.703Z,1020.54
2018-01-08T05:20:42.691Z,1020.60
2018-01-08T05:21:42.679Z,1020.57
2018-01-08T05:22:42.668Z,1020.66
2018-01-08T05:23:42.656Z,1020.63
2018-01-08T05:24:42.646Z,1020.67
2018-01-08T05:25:42.635Z,1020.60
2018-01-08T05:26:42.627Z,1020.67
2018-01-08T05:27:42.616Z,1020.59
2018-01-08T05:28:42.608Z,1020.69
2018-01-08T05:29:42.600Z,1020.57
2018-01-08T05:30:42.582Z,1020.68
2018-01-08T05:31:42.571Z,1020.62
2018-01-08T05:32:42.559Z,1020.53
2018-01-08T05:33:42.548Z,1020.58
2018-01-08T05:34:42.532Z,1020.66
2018-01-08T05:35:42.522Z,1020.66
2018-01-08T05:36:42.512Z,1020.58
2018-01-08T05:37:42.498Z,1020.61
2018-01-08T05:38:42.487Z,1020.66
2018-01-08T05:39:42.477Z,1020.74
2018-01-08T05:40:42.470Z,1020.68
2018-01-08T05:41:42.457Z,1020.66
2018-01-08T05:42:42.446Z,1020.72
2018-01-08T05:43:42.435Z,1020.59
2018-01-08T05:44:42.426Z,1020.66
2018-01-08T05:45:42.412Z,1020.63
2018-01-08T05:46:42.402Z,1020.72
2018-01-08T05:47:42.390Z,1020.59
2018-01-08T05:48:42.379Z,1020.62
2018-01-08T05:49:42.367Z,1020.75
2018-01-08T05:50:42.353Z,1020.60
2018-01-08T05:51:42.341Z,1020.73
2018-01-08T05:52:42.329Z,1020.80
2018-01-08T05:53:42.317Z,1020.78
2018-01-08T05:54:42.310Z,1020.71
2018-01-08T05:55:42.299Z,1020.69
2018-01-08T05:56:42.290Z,1020.69
2018-01-08T05:57:42.276Z,1020.72
2018-01-08T05:58:42.261Z,1020.72
2018-01-08T05:59:42.251Z,1020.66
2018-01-08T06:00:42.239Z,1020.64
2018-01-08T06:01:42.227Z,1020.64
2018-01-08T06:02:42.216Z,1020.70
2018-01-08T06:03:42.207Z,1020.68
2018-01-08T06:04:42.194Z,1020.67
2018-01-08T06:05:42.184Z,1020.64
2018-01-08T06:06:42.180Z,1020.68
2018-01-08T06:07:42.165Z,1020.69
2018-01-08T06:08:42.154Z,1020.65
2018-01-08T06:09:42.142Z,1020.62
2018-01-08T06:10:42.131Z,1020.71
2018-01-08T06:11:42.121Z,1020.59
2018-01-08T06:12:42.109Z,1020.92
2018-01-08T06:13:42.098Z,1020.74
2018-01-08T06:14:42.088Z,1020.72
2018-01-08T06:15:42.071Z,1020.73
2018-01-08T06:16:42.069Z,1020.69
2018-01-08T06:17:42.049Z,1020.67
2018-01-08T06:18:42.040Z,1020.69
2018-01-08T06:19:42.031Z,1020.77
2018-01-08T06:20:42.020Z,1020.73
2018-01-08T06:21:42.004Z,1020.76
2018-01-08T06:22:41.998Z,1020.78
2018-01-08T06:23:41.987Z,1020.72
2018-01-08T06:24:41.977Z,1020.75
2018-01-08T06:25:41.965Z,1020.78
2018-01-08T06:26:41.954Z,1020.78
2018-01-08T06:27:41.942Z,1020.82
2018-01-08T06:28:41.932Z,1020.80
2018-01-08T06:29:41.921Z,1020.88
2018-01-08T06:30:41.905Z,1020.92
2018-01-08T06:31:41.894Z,1020.90
2018-01-08T06:32:41.884Z,1020.96
2018-01-08T06:33:41.872Z,1020.92
2018-01-08T06:34:41.861Z,1020.94
2018-01-08T06:35:41.850Z,1020.91
2018-01-08T06:36:41.840Z,1020.88
2018-01-08T06:37:41.828Z,1020.88
2018-01-08T06:38:41.822Z,1020.92
2018-01-08T06:39:41.812Z,1020.88
2018-01-08T06:40:41.800Z,1020.92
2018-01-08T06:41:41.788Z,1020.82
2018-01-08T06:42:41.777Z,1020.88
2018-01-08T06:43:41.767Z,1020.86
2018-01-08T06:44:41.758Z,1020.76
2018-01-08T06:45:41.744Z,1020.79
2018-01-08T06:46:41.729Z,1020.82
2018-01-08T06:47:41.718Z,1020.83
2018-01-08T06:48:41.708Z,1020.92
2018-01-08T06:49:41.697Z,1020.82
2018-01-08T06:50:41.695Z,1020.82
2018-01-08T06:51:41.677Z,1020.79
2018-01-08T06:52:41.665Z,1020.78
2018-01-08T06:53:41.653Z,1020.85
2018-01-08T06:54:41.647Z,1020.83
2018-01-08T06:55:41.635Z,1020.79
2018-01-08T06:56:41.626Z,1020.77
2018-01-08T06:57:41.616Z,1020.74
2018-01-08T06:58:41.599Z,1020.74
2018-01-08T06:59:41.588Z,1020.75
2018-01-08T07:00:41.578Z,1020.75
2018-01-08T07:01:41.566Z,1020.76
2018-01-08T07:02:41.560Z,1020.81
2018-01-08T07:03:41.550Z,1020.88
2018-01-08T07:04:41.542Z,1020.78
2018-01-08T07:05:41.527Z,1020.83
2018-01-08T07:06:41.517Z,1020.81
2018-01-08T07:07:41.509Z,1020.90
2018-01-08T07:08:41.496Z,1020.78
2018-01-08T07:09:41.484Z,1020.80
2018-01-08T07:10:41.469Z,1020.86
2018-01-08T07:11:41.458Z,1020.83
2018-01-08T07:12:41.448Z,1020.88
2018-01-08T07:13:41.438Z,1020.85
2018-01-08T07:14:41.426Z,1020.86
2018-01-08T07:15:41.415Z,1020.84
2018-01-08T07:16:41.404Z,1020.85
2018-01-08T07:17:41.394Z,1020.83
2018-01-08T07:18:41.387Z,1020.87
2018-01-08T07:19:41.376Z,1020.71
2018-01-08T07:20:41.365Z,1020.82
2018-01-08T07:21:41.353Z,1020.86
2018-01-08T07:22:41.343Z,1020.81
2018-01-08T07:23:41.334Z,1020.86
2018-01-08T07:24:41.322Z,1020.80
2018-01-08T07:25:41.312Z,1020.77
2018-01-08T07:26:41.299Z,1020.79
2018-01-08T07:27:41.286Z,1020.79
2018-01-08T07:28:41.275Z,1020.75
2018-01-08T07:29:41.263Z,1020.68
2018-01-08T07:30:41.253Z,1020.74
2018-01-08T07:31:41.242Z,1020.68
2018-01-08T07:32:41.231Z,1020.73
2018-01-08T07:33:41.221Z,1020.69
2018-01-08T07:34:41.214Z,1020.73
2018-01-08T07:35:41.206Z,1020.68
2018-01-08T07:36:41.193Z,1020.68
2018-01-08T07:37:41.181Z,1020.66
2018-01-08T07:38:41.172Z,1020.66
2018-01-08T07:39:41.164Z,1020.67
2018-01-08T07:40:41.150Z,1020.69
2018-01-08T07:41:41.138Z,1020.63
2018-01-08T07:42:41.124Z,1020.63
2018-01-08T07:43:41.113Z,1020.59
2018-01-08T07:44:41.103Z,1020.58
2018-01-08T07:45:41.091Z,1020.64
2018-01-08T07:46:41.081Z,1020.56
2018-01-08T07:47:41.071Z,1020.52
2018-01-08T07:48:41.061Z,1020.62
2018-01-08T07:49:41.049Z,1020.61
2018-01-08T07:50:41.042Z,1020.59
2018-01-08T07:51:41.032Z,1020.65
2018-01-08T07:52:41.022Z,1020.58
2018-01-08T07:53:41.010Z,1020.59
2018-01-08T07:54:40.999Z,1020.55
2018-01-08T07:55:40.989Z,1020.51
2018-01-08T07:56:40.978Z,1020.56
2018-01-08T07:57:40.967Z,1020.56
2018-01-08T07:58:40.955Z,1020.57
2018-01-08T07:59:40.941Z,1020.58
2018-01-08T08:00:40.931Z,1020.58
2018-01-08T08:01:40.920Z,1020.56
2018-01-08T08:02:40.913Z,1020.57
2018-01-08T08:03:40.902Z,1020.54
2018-01-08T08:04:40.895Z,1020.53
2018-01-08T08:05:40.883Z,1020.60
2018-01-08T08:06:40.866Z,1020.58
2018-01-08T08:07:40.857Z,1020.57
2018-01-08T08:08:40.845Z,1020.60
2018-01-08T08:09:40.834Z,1020.56
2018-01-08T08:10:40.826Z,1020.54
2018-01-08T08:11:40.813Z,1020.65
2018-01-08T08:12:40.803Z,1020.57
2018-01-08T08:13:40.793Z,1020.63
2018-01-08T08:14:40.786Z,1020.61
2018-01-08T08:15:40.775Z,1020.64
2018-01-08T08:16:40.766Z,1020.64
2018-01-08T08:17:40.753Z,1020.66
2018-01-08T08:18:40.744Z,1020.59
2018-01-08T08:19:40.732Z,1020.62
2018-01-08T08:20:40.722Z,1020.65
2018-01-08T08:21:40.711Z,1020.60
2018-01-08T08:22:40.696Z,1020.69
2018-01-08T08:23:40.686Z,1020.64
2018-01-08T08:24:40.676Z,1020.62
2018-01-08T08:25:40.664Z,1020.63
2018-01-08T08:26:40.654Z,1020.67
2018-01-08T08:27:40.643Z,1020.64
2018-01-08T08:28:40.633Z,1020.59
2018-01-08T08:29:40.623Z,1020.65
2018-01-08T08:30:40.615Z,1020.65
2018-01-08T08:31:40.605Z,1020.54
2018-01-08T08:32:40.595Z,1020.62
2018-01-08T08:33:40.585Z,1020.61
2018-01-08T08:34:40.573Z,1020.59
2018-01-08T08:35:40.563Z,1020.60
2018-01-08T08:36:40.553Z,1020.61
2018-01-08T08:37:40.543Z,1020.60
2018-01-08T08:38:40.527Z,1020.61
2018-01-08T08:39:40.517Z,1020.65
2018-01-08T08:40:40.508Z,1020.66
2018-01-08T08:41:40.495Z,1020.61
2018-01-08T08:42:40.485Z,1020.67
2018-01-08T08:43:40.475Z,1020.66
2018-01-08T08:44:40.474Z,1020.67
2018-01-08T08:45:40.453Z,1020.64
2018-01-08T08:46:40.448Z,1020.62
2018-01-08T08:47:40.437Z,1020.62
2018-01-08T08:48:40.439Z,1020.66
2018-01-08T08:49:40.415Z,1020.61
2018-01-08T08:50:40.406Z,1020.60
2018-01-08T08:51:40.395Z,1020.64
2018-01-08T08:52:40.385Z,1020.67
2018-01-08T08:53:40.374Z,1020.62
2018-01-08T08:54:40.360Z,1020.55
2018-01-08T08:55:40.348Z,1020.56
2018-01-08T08:56:40.339Z,1020.61
2018-01-08T08:57:40.326Z,1020.60
2018-01-08T08:58:40.317Z,1020.57
2018-01-08T08:59:40.308Z,1020.60
2018-01-08T09:00:40.298Z,1020.60
2018-01-08T09:01:40.288Z,1020.55
2018-01-08T09:02:40.281Z,1020.56
2018-01-08T09:03:40.270Z,1020.56
2018-01-08T09:04:40.259Z,1020.48
2018-01-08T09:05:40.250Z,1020.56
2018-01-08T09:06:40.241Z,1020.50
2018-01-08T09:07:40.233Z,1020.48
2018-01-08T09:08:40.219Z,1020.48
2018-01-08T09:09:40.208Z,1020.49
2018-01-08T09:10:40.195Z,1020.48
2018-01-08T09:11:40.184Z,1020.54
2018-01-08T09:12:40.173Z,1020.57
2018-01-08T09:13:40.162Z,1020.51
2018-01-08T09:14:40.153Z,1020.45
2018-01-08T09:15:40.143Z,1020.46
2018-01-08T09:16:40.133Z,1020.47
2018-01-08T09:17:40.122Z,1020.56
2018-01-08T09:18:40.118Z,1020.53
2018-01-08T09:19:40.111Z,1020.49
2018-01-08T09:20:40.097Z,1020.46
2018-01-08T09:21:40.086Z,1020.43
2018-01-08T09:22:40.077Z,1020.53
2018-01-08T09:23:40.068Z,1020.49
2018-01-08T09:24:40.057Z,1020.48
2018-01-08T09:25:40.047Z,1020.54
2018-01-08T09:26:40.038Z,1020.53
2018-01-08T09:27:40.023Z,1020.60
2018-01-08T09:28:40.014Z,1020.62
2018-01-08T09:29:40.003Z,1020.55
2018-01-08T09:30:39.992Z,1020.54
2018-01-08T09:31:39.982Z,1020.57
2018-01-08T09:32:39.975Z,1020.53
2018-01-08T09:33:39.961Z,1020.60
2018-01-08T09:34:39.956Z,1020.52
2018-01-08T09:35:39.949Z,1020.53
2018-01-08T09:36:39.943Z,1020.53
2018-01-08T09:37:39.926Z,1020.51
2018-01-08T09:38:39.917Z,1020.47
2018-01-08T09:39:39.907Z,1020.53
2018-01-08T09:40:39.896Z,1020.43
2018-01-08T09:41:39.885Z,1020.38
2018-01-08T09:42:39.871Z,1020.44
2018-01-08T09:43:39.861Z,1020.47
2018-01-08T09:44:39.852Z,1020.54
2018-01-08T09:45:39.841Z,1020.47
2018-01-08T09:46:39.831Z,1020.48
2018-01-08T09:47:39.821Z,1020.47
2018-01-08T09:48:39.812Z,1020.53
2018-01-08T09:49:39.802Z,1020.49
2018-01-08T09:50:39.795Z,1020.45
2018-01-08T09:51:39.789Z,1020.45
2018-01-08T09:52:39.776Z,1020.49
2018-01-08T09:53:39.766Z,1020.47
2018-01-08T09:54:39.755Z,1020.49
2018-01-08T09:55:39.748Z,1020.56
2018-01-08T09:56:39.737Z,1020.54
2018-01-08T09:57:39.726Z,1020.56
2018-01-08T09:58:39.711Z,1020.46
2018-01-08T09:59:39.702Z,1020.47
2018-01-08T10:00:39.692Z,1020.45
2018-01-08T10:01:39.680Z,1020.47
2018-01-08T10:02:39.672Z,1020.44
2018-01-08T10:03:39.662Z,1020.46
2018-01-08T10:04:39.652Z,1020.50
2018-01-08T10:05:39.642Z,1020.42
2018-01-08T10:06:39.636Z,1020.39
2018-01-08T10:07:39.627Z,1020.45
2018-01-08T10:08:39.618Z,1020.44
2018-01-08T10:09:39.606Z,1020.40
2018-01-08T10:10:39.592Z,1020.39
2018-01-08T10:11:39.583Z,1020.40
2018-01-08T10:12:39.574Z,1020.32
2018-01-08T10:13:39.563Z,1020.30
2018-01-08T10:14:39.557Z,1020.40
2018-01-08T10:15:39.547Z,1020.36
2018-01-08T10:16:39.540Z,1020.37
2018-01-08T10:17:39.527Z,1020.33
2018-01-08T10:18:39.519Z,1020.34
2018-01-08T10:19:39.509Z,1020.37
2018-01-08T10:20:39.499Z,1020.38
2018-01-08T10:21:39.488Z,1020.35
2018-01-08T10:22:39.477Z,1020.28
2018-01-08T10:23:39.466Z,1020.35
2018-01-08T10:24:39.456Z,1020.34
2018-01-08T10:25:39.446Z,1020.25
2018-01-08T10:26:39.436Z,1020.29
2018-01-08T10:27:39.430Z,1020.24
2018-01-08T10:28:39.418Z,1020.31
2018-01-08T10:29:39.408Z,1020.29
2018-01-08T10:30:39.407Z,1020.15
2018-01-08T10:31:39.393Z,1020.36
2018-01-08T10:32:39.383Z,1020.17
2018-01-08T10:33:39.373Z,1020.24
2018-01-08T10:34:39.364Z,1020.13
2018-01-08T10:35:39.355Z,1020.19
2018-01-08T10:36:39.346Z,1020.11
2018-01-08T10:37:39.334Z,1020.14
2018-01-08T10:38:39.321Z,1020.10
2018-01-08T10:39:39.313Z,1020.11
2018-01-08T10:40:39.304Z,1020.05
2018-01-08T10:41:39.293Z,1020.06
2018-01-08T10:42:39.284Z,1020.01
2018-01-08T10:43:39.274Z,1019.99
2018-01-08T10:44:39.265Z,1019.92
2018-01-08T10:45:39.258Z,1019.95
2018-01-08T10:46:39.251Z,1019.90
2018-01-08T10:47:39.241Z,1019.79
2018-01-08T10:48:39.233Z,1019.86
2018-01-08T10:49:39.223Z,1019.78
2018-01-08T10:50:39.214Z,1019.79
2018-01-08T10:51:39.205Z,1019.72
2018-01-08T10:52:39.195Z,1019.74
2018-01-08T10:53:39.185Z,1019.73
2018-01-08T10:54:39.173Z,1019.69
2018-01-08T10:55:39.163Z,1019.66
2018-01-08T10:56:39.155Z,1019.67
2018-01-08T10:57:39.145Z,1019.62
2018-01-08T10:58:39.136Z,1019.66
2018-01-08T10:59:39.134Z,1019.67
2018-01-08T11:00:39.119Z,1019.61
2018-01-08T11:01:39.109Z,1019.66
2018-01-08T11:02:39.105Z,1019.67
2018-01-08T11:03:39.097Z,1019.62
2018-01-08T11:04:39.091Z,1019.61
2018-01-08T11:05:39.086Z,1019.59
2018-01-08T11:06:39.071Z,1019.63
2018-01-08T11:07:39.062Z,1019.63
2018-01-08T11:08:39.055Z,1019.57
2018-01-08T11:09:39.046Z,1019.57
2018-01-08T11:10:39.033Z,1019.56
2018-01-08T11:11:39.029Z,1019.61
2018-01-08T11:12:39.017Z,1019.63
2018-01-08T11:13:39.009Z,1019.55
2018-01-08T11:14:39.004Z,1019.59
2018-01-08T11:15:38.996Z,1019.57
2018-01-08T11:16:38.991Z,1019.58
2018-01-08T11:17:38.980Z,1019.46
2018-01-08T11:18:38.969Z,1019.52
2018-01-08T11:19:39.005Z,1019.52
2018-01-08T11:20:38.959Z,1019.51
2018-01-08T11:21:38.947Z,1019.49
2018-01-08T11:22:38.941Z,1019.54
2018-01-08T11:23:38.934Z,1019.44
2018-01-08T11:24:38.928Z,1019.44
2018-01-08T11:25:38.921Z,1019.40
2018-01-08T11:26:38.920Z,1019.41
2018-01-08T11:27:38.914Z,1019.42
2018-01-08T11:28:38.912Z,1019.38
2018-01-08T11:29:38.903Z,1019.44
2018-01-08T11:30:38.901Z,1019.42
2018-01-08T11:31:38.891Z,1019.44
2018-01-08T11:32:38.887Z,1019.31
2018-01-08T11:33:38.881Z,1019.41
2018-01-08T11:34:38.933Z,1019.37
2018-01-08T11:35:38.870Z,1019.35
2018-01-08T11:36:38.860Z,1019.36
2018-01-08T11:37:38.854Z,1019.40
2018-01-08T11:38:38.849Z,1019.33
2018-01-08T11:39:38.856Z,1019.36
2018-01-08T11:40:38.842Z,1019.30
2018-01-08T11:41:38.833Z,1019.27
2018-01-08T11:42:38.834Z,1019.25
2018-01-08T11:43:38.827Z,1019.26
2018-01-08T11:44:38.832Z,1019.23
2018-01-08T11:45:38.818Z,1019.24
2018-01-08T11:46:38.818Z,1019.17
2018-01-08T11:47:38.804Z,1019.18
2018-01-08T11:48:38.800Z,1019.19
2018-01-08T11:49:38.792Z,1019.15
2018-01-08T11:50:38.782Z,1019.15
2018-01-08T11:51:38.776Z,1019.12
2018-01-08T11:52:38.770Z,1019.10
2018-01-08T11:53:38.763Z,1018.99
2018-01-08T11:54:38.757Z,1018.97
2018-01-08T11:55:38.751Z,1018.96
2018-01-08T11:56:38.744Z,1018.90
2018-01-08T11:57:38.738Z,1018.92
2018-01-08T11:58:38.735Z,1018.87
2018-01-08T11:59:38.727Z,1018.87
2018-01-08T12:00:38.720Z,1018.90
2018-01-08T12:01:38.715Z,1018.84
2018-01-08T12:02:38.706Z,1018.83
2018-01-08T12:03:38.698Z,1018.86
2018-01-08T12:04:38.691Z,1018.84
2018-01-08T12:05:38.689Z,1018.83